Time;durP1;ratioP1;P1;durP2;ratioP2;P2;SDS_P1;SDS_P2;PMS_P1;PMS_P2;Temp;Humidity;BMP_temperature;BMP_pressure;BME280_temperature;BME280_humidity;BME280_pressure;Samples;Min_cycle;Max_cycle;Signal;HPM_P1;HPM_P2
2023/03/18 00:01:02;;;;;;;6.20;2.30;;;9.60;81.40;;;;;;5073344;28;20049;-66
2023/03/18 00:03:29;;;;;;;7.80;2.00;;;9.40;82.00;;;;;;5072690;28;20298;-66
2023/03/18 00:06:20;;;;;;;6.97;1.83;;;9.30;82.10;;;;;;5080443;28;20135;-66
2023/03/18 00:08:56;;;;;;;5.68;2.13;;;9.30;81.40;;;;;;5074948;28;20032;-65
2023/03/18 00:11:23;;;;;;;6.70;2.42;;;9.20;82.50;;;;;;5069189;28;20028;-66
2023/03/18 00:13:49;;;;;;;4.65;1.80;;;9.10;81.90;;;;;;5067654;28;20042;-66
2023/03/18 00:16:15;;;;;;;4.18;1.92;;;9.20;81.50;;;;;;5067850;28;20073;-66
2023/03/18 00:18:41;;;;;;;3.78;1.75;;;9.20;83.70;;;;;;5068999;28;20321;-65
2023/03/18 00:21:08;;;;;;;4.68;1.75;;;9.00;82.60;;;;;;5065592;28;20024;-65
2023/03/18 00:23:34;;;;;;;5.97;1.60;;;9.10;80.90;;;;;;5069656;28;20028;-65
2023/03/18 00:26:01;;;;;;;4.50;1.60;;;9.30;78.50;;;;;;5069349;28;20047;-66
2023/03/18 00:28:27;;;;;;;4.95;1.77;;;9.30;82.10;;;;;;5069059;28;20028;-65
2023/03/18 00:30:55;;;;;;;5.13;1.50;;;9.20;83.70;;;;;;5070777;28;20033;-65
2023/03/18 00:33:21;;;;;;;6.40;1.77;;;9.00;82.50;;;;;;5070795;28;20025;-65
2023/03/18 00:35:47;;;;;;;4.25;1.50;;;9.00;81.60;;;;;;5070829;28;20024;-64
2023/03/18 00:38:19;;;;;;;5.40;1.90;;;9.00;83.00;;;;;;5069707;28;20452;-64
2023/03/18 00:41:00;;;;;;;4.28;1.48;;;8.90;84.80;;;;;;5070634;28;20066;-65
2023/03/18 00:43:28;;;;;;;5.20;1.63;;;8.80;83.70;;;;;;5068391;28;20502;-65
2023/03/18 00:45:55;;;;;;;6.68;1.83;;;9.00;81.10;;;;;;5068800;28;20023;-66
2023/03/18 00:48:23;;;;;;;3.45;1.60;;;9.20;79.70;;;;;;5071472;28;20146;-66
2023/03/18 00:50:50;;;;;;;3.28;1.30;;;9.50;76.70;;;;;;5068245;28;20024;-65
2023/03/18 00:53:16;;;;;;;6.05;1.60;;;9.90;75.90;;;;;;5068790;28;20028;-65
2023/03/18 00:55:42;;;;;;;4.30;1.67;;;10.20;73.70;;;;;;5054723;28;20063;-65
2023/03/18 00:58:08;;;;;;;4.95;1.48;;;10.50;72.50;;;;;;5050243;28;20380;-65
2023/03/18 01:00:38;;;;;;;4.32;1.70;;;10.60;71.90;;;;;;5052784;28;20433;-65
2023/03/18 01:03:05;;;;;;;3.85;1.40;;;10.80;71.10;;;;;;5072447;28;20032;-66
2023/03/18 01:05:31;;;;;;;4.10;1.25;;;11.00;70.00;;;;;;5069708;28;20032;-65
2023/03/18 01:07:58;;;;;;;5.90;1.60;;;11.20;69.30;;;;;;5071792;28;20032;-65
2023/03/18 01:10:26;;;;;;;4.35;1.50;;;11.30;69.10;;;;;;5068647;28;20025;-66
2023/03/18 01:12:52;;;;;;;3.13;1.45;;;11.30;69.40;;;;;;5062108;28;20013;-66
2023/03/18 01:15:20;;;;;;;3.08;1.40;;;11.30;69.20;;;;;;5067251;28;20036;-66
2023/03/18 01:17:46;;;;;;;3.72;1.60;;;11.30;69.30;;;;;;5071820;28;20033;-65
2023/03/18 01:20:15;;;;;;;4.80;1.40;;;11.30;69.00;;;;;;5070651;28;20029;-65
2023/03/18 01:22:42;;;;;;;8.73;1.55;;;11.40;68.90;;;;;;5067317;28;20044;-65
2023/03/18 01:25:10;;;;;;;8.10;2.70;;;11.50;68.80;;;;;;5067828;28;20372;-66
2023/03/18 01:27:36;;;;;;;3.85;1.40;;;11.60;68.90;;;;;;5066007;28;20032;-65
2023/03/18 01:30:04;;;;;;;2.88;1.45;;;11.40;69.30;;;;;;5070492;28;20035;-65
2023/03/18 01:32:29;;;;;;;4.18;1.52;;;11.30;69.30;;;;;;5072733;28;20024;-65
2023/03/18 01:34:58;;;;;;;4.45;1.30;;;11.30;69.30;;;;;;5065445;28;20031;-65
2023/03/18 01:37:24;;;;;;;4.28;1.70;;;11.30;69.40;;;;;;5070536;28;20328;-66
2023/03/18 01:39:50;;;;;;;4.72;1.52;;;11.30;69.40;;;;;;5062319;28;20089;-66
2023/03/18 01:42:20;;;;;;;4.30;1.50;;;11.40;69.50;;;;;;5064109;28;20678;-65
2023/03/18 01:44:46;;;;;;;5.50;1.67;;;11.40;69.50;;;;;;5070336;28;20013;-65
2023/03/18 01:47:12;;;;;;;4.07;1.50;;;11.40;69.60;;;;;;5073806;28;20324;-66
2023/03/18 01:49:46;;;;;;;5.97;1.70;;;11.30;69.70;;;;;;5065596;28;20025;-66
2023/03/18 01:52:19;;;;;;;4.38;1.60;;;11.30;70.10;;;;;;5065293;28;20040;-65
2023/03/18 01:54:55;;;;;;;8.20;1.52;;;11.20;70.10;;;;;;5068067;28;20047;-66
2023/03/18 01:57:23;;;;;;;5.07;1.63;;;11.20;69.90;;;;;;5070159;28;20337;-65
2023/03/18 01:59:51;;;;;;;3.88;1.40;;;11.10;70.50;;;;;;5072974;28;20052;-65
2023/03/18 02:02:17;;;;;;;4.85;1.95;;;11.00;70.90;;;;;;5067044;28;20024;-66
2023/03/18 02:04:47;;;;;;;5.88;1.70;;;10.80;71.30;;;;;;5065496;28;20354;-65
2023/03/18 02:07:25;;;;;;;6.78;1.70;;;10.70;71.80;;;;;;5063526;28;20031;-65
2023/03/18 02:09:52;;;;;;;4.43;1.48;;;10.50;71.90;;;;;;5060555;28;20043;-66
2023/03/18 02:12:26;;;;;;;4.53;1.40;;;10.70;71.50;;;;;;5069637;28;20032;-66
2023/03/18 02:14:53;;;;;;;3.88;1.33;;;10.70;71.00;;;;;;5069028;28;20478;-66
2023/03/18 02:17:24;;;;;;;6.03;1.67;;;10.80;71.10;;;;;;5075073;28;20085;-66
2023/03/18 02:19:57;;;;;;;4.32;1.50;;;10.70;71.70;;;;;;5071776;28;20413;-64
2023/03/18 02:22:25;;;;;;;4.53;1.48;;;10.60;71.50;;;;;;5073386;28;20094;-65
2023/03/18 02:25:10;;;;;;;4.18;1.33;;;10.60;71.30;;;;;;5070634;28;20120;-66
2023/03/18 02:27:44;;;;;;;4.05;1.40;;;10.80;71.00;;;;;;5065927;28;20044;-65
2023/03/18 02:30:30;;;;;;;5.78;1.40;;;10.80;71.10;;;;;;5075195;28;20048;-66
2023/03/18 02:32:58;;;;;;;3.80;1.50;;;10.80;71.80;;;;;;5070254;28;20025;-66
2023/03/18 02:35:25;;;;;;;4.68;1.50;;;10.80;70.80;;;;;;5073973;28;20380;-65
2023/03/18 02:37:51;;;;;;;3.70;1.30;;;11.00;70.30;;;;;;5066769;28;20123;-65
2023/03/18 02:40:30;;;;;;;5.30;1.70;;;11.00;70.70;;;;;;5073213;28;20111;-64
2023/03/18 02:42:56;;;;;;;5.85;1.98;;;11.00;70.00;;;;;;5064146;28;20021;-65
2023/03/18 02:45:44;;;;;;;5.75;1.60;;;11.10;70.10;;;;;;5076843;28;20078;-65
2023/03/18 02:48:14;;;;;;;3.15;1.33;;;11.00;71.20;;;;;;5071792;28;20025;-65
2023/03/18 02:50:42;;;;;;;4.00;1.40;;;10.80;71.10;;;;;;5076584;28;20028;-66
2023/03/18 02:53:11;;;;;;;4.75;1.40;;;10.70;71.90;;;;;;5071762;28;20401;-65
2023/03/18 02:55:36;;;;;;;6.00;1.30;;;10.60;71.90;;;;;;5076790;28;20012;-66
2023/03/18 02:58:02;;;;;;;4.35;1.40;;;10.60;72.10;;;;;;5071738;28;20485;-65
2023/03/18 03:00:27;;;;;;;5.07;1.55;;;10.40;73.10;;;;;;5074285;28;20052;-65
2023/03/18 03:02:53;;;;;;;4.60;1.67;;;10.30;73.60;;;;;;5071639;28;20456;-66
2023/03/18 03:05:19;;;;;;;5.40;1.70;;;10.20;73.60;;;;;;5073980;28;20409;-65
2023/03/18 03:07:45;;;;;;;4.95;1.50;;;10.20;73.70;;;;;;5054122;28;20111;-66
2023/03/18 03:10:11;;;;;;;8.25;1.90;;;10.10;73.80;;;;;;5070646;28;20111;-66
2023/03/18 03:12:37;;;;;;;3.92;1.75;;;10.00;74.20;;;;;;5072080;28;20033;-65
2023/03/18 03:15:06;;;;;;;5.90;1.58;;;9.80;75.00;;;;;;5060892;28;20039;-65
2023/03/18 03:17:32;;;;;;;5.47;1.80;;;9.80;74.50;;;;;;5074122;28;20023;-66
2023/03/18 03:19:58;;;;;;;5.95;1.60;;;9.80;75.20;;;;;;5074585;28;20028;-66
2023/03/18 03:22:26;;;;;;;4.03;1.50;;;9.70;75.10;;;;;;5073914;28;20290;-66
2023/03/18 03:24:52;;;;;;;3.95;1.80;;;9.60;75.40;;;;;;5070840;28;20419;-66
2023/03/18 03:27:18;;;;;;;6.82;1.65;;;9.40;77.30;;;;;;5074595;28;20384;-64
2023/03/18 03:29:44;;;;;;;3.55;1.55;;;9.20;77.40;;;;;;5073533;28;20025;-64
2023/03/18 03:32:10;;;;;;;6.45;1.50;;;9.10;77.50;;;;;;5068411;28;20040;-64
2023/03/18 03:34:36;;;;;;;4.65;1.45;;;9.20;76.00;;;;;;5075372;28;20421;-64
2023/03/18 03:37:02;;;;;;;4.40;1.40;;;9.60;74.90;;;;;;5069955;28;20421;-64
2023/03/18 03:39:28;;;;;;;5.82;1.88;;;9.70;74.40;;;;;;5065875;28;20043;-66
2023/03/18 03:41:53;;;;;;;7.07;1.83;;;9.70;74.40;;;;;;5073170;28;20131;-66
2023/03/18 03:44:19;;;;;;;4.20;1.63;;;9.70;73.90;;;;;;5070754;28;20024;-64
2023/03/18 03:46:44;;;;;;;6.78;1.60;;;9.70;74.10;;;;;;5070740;28;20029;-66
2023/03/18 03:49:11;;;;;;;3.92;1.50;;;9.70;74.10;;;;;;5071276;28;20032;-65
2023/03/18 03:51:36;;;;;;;3.53;1.52;;;9.90;73.70;;;;;;5072909;28;20316;-66
2023/03/18 03:54:02;;;;;;;7.05;1.50;;;9.90;73.80;;;;;;5075527;28;20024;-64
2023/03/18 03:56:30;;;;;;;4.30;1.30;;;10.00;73.70;;;;;;5074807;28;20067;-65
2023/03/18 03:58:56;;;;;;;4.30;1.67;;;9.90;74.70;;;;;;5074172;28;20066;-64
2023/03/18 04:01:22;;;;;;;4.40;1.73;;;9.90;73.60;;;;;;5054190;28;20037;-65
2023/03/18 04:03:48;;;;;;;3.08;1.20;;;9.90;73.70;;;;;;5075477;28;20031;-64
2023/03/18 04:06:14;;;;;;;5.43;1.63;;;9.90;73.50;;;;;;5070397;28;20103;-66
2023/03/18 04:08:40;;;;;;;4.18;1.50;;;10.00;73.40;;;;;;5071354;28;20108;-66
2023/03/18 04:11:06;;;;;;;4.32;1.67;;;9.90;73.50;;;;;;5071929;28;20027;-66
2023/03/18 04:13:33;;;;;;;6.70;1.80;;;9.90;73.50;;;;;;5063200;28;20405;-64
2023/03/18 04:15:58;;;;;;;5.60;1.85;;;10.00;73.20;;;;;;5061215;28;20113;-65
2023/03/18 04:18:24;;;;;;;3.88;1.60;;;10.00;73.00;;;;;;5073893;28;20032;-65
2023/03/18 04:20:50;;;;;;;7.97;2.05;;;10.00;73.10;;;;;;5072140;28;20024;-66
2023/03/18 04:23:16;;;;;;;5.78;1.50;;;10.10;72.60;;;;;;5075009;28;20036;-66
2023/03/18 04:25:42;;;;;;;9.55;1.63;;;10.10;72.60;;;;;;5074028;28;20071;-66
2023/03/18 04:28:07;;;;;;;5.50;1.67;;;10.00;72.80;;;;;;5073714;28;20035;-65
2023/03/18 04:30:33;;;;;;;3.88;1.63;;;10.00;73.00;;;;;;5072175;28;20439;-66
2023/03/18 04:33:02;;;;;;;4.60;1.63;;;9.90;73.50;;;;;;5074774;28;20036;-66
2023/03/18 04:35:28;;;;;;;3.45;1.50;;;10.00;73.10;;;;;;5072077;28;20047;-66
2023/03/18 04:37:53;;;;;;;3.85;1.65;;;9.90;73.30;;;;;;5071197;28;20146;-64
2023/03/18 04:40:19;;;;;;;5.03;1.60;;;9.80;73.50;;;;;;5072805;28;20115;-67
2023/03/18 04:42:46;;;;;;;3.22;1.27;;;9.60;74.20;;;;;;5070121;28;20496;-65
2023/03/18 04:45:13;;;;;;;4.38;1.50;;;9.60;74.00;;;;;;5073067;28;20286;-65
2023/03/18 04:47:41;;;;;;;5.45;1.70;;;9.50;74.60;;;;;;5048949;28;20348;-66
2023/03/18 04:50:10;;;;;;;5.15;1.60;;;9.40;74.10;;;;;;5064857;28;20040;-64
2023/03/18 04:52:40;;;;;;;4.07;1.45;;;9.40;74.80;;;;;;5066902;28;20025;-65
2023/03/18 04:55:08;;;;;;;4.05;1.63;;;9.30;75.70;;;;;;5068941;28;20181;-65
2023/03/18 04:57:37;;;;;;;5.70;1.63;;;9.30;75.20;;;;;;5072144;28;20020;-65
2023/03/18 05:00:10;;;;;;;3.28;1.38;;;9.20;75.80;;;;;;5072757;28;20025;-65
2023/03/18 05:02:36;;;;;;;5.25;1.60;;;9.10;75.70;;;;;;5050208;28;20088;-65
2023/03/18 05:05:03;;;;;;;7.00;1.80;;;9.10;76.30;;;;;;5053244;28;20072;-65
2023/03/18 05:07:28;;;;;;;4.15;1.50;;;9.00;76.50;;;;;;5049804;28;20045;-66
2023/03/18 05:09:54;;;;;;;4.55;1.48;;;8.80;77.60;;;;;;5050099;28;20021;-66
2023/03/18 05:12:20;;;;;;;5.03;1.75;;;8.70;77.50;;;;;;5048886;28;20082;-65
2023/03/18 05:14:46;;;;;;;4.72;1.50;;;8.60;77.90;;;;;;5040881;28;20495;-65
2023/03/18 05:17:15;;;;;;;6.82;1.73;;;8.50;78.10;;;;;;5053943;28;20029;-65
2023/03/18 05:19:45;;;;;;;4.30;1.60;;;8.40;80.20;;;;;;5044543;28;20462;-65
2023/03/18 05:22:12;;;;;;;6.97;1.70;;;8.10;82.60;;;;;;5053761;28;20087;-66
2023/03/18 05:24:39;;;;;;;4.22;1.60;;;7.80;82.50;;;;;;5052775;28;20096;-64
2023/03/18 05:27:05;;;;;;;4.32;1.55;;;7.70;80.90;;;;;;5054872;28;20096;-66
2023/03/18 05:29:31;;;;;;;4.65;1.70;;;7.70;83.00;;;;;;5054066;28;20109;-66
2023/03/18 05:31:57;;;;;;;4.82;1.67;;;7.50;83.80;;;;;;5052739;28;20385;-64
2023/03/18 05:34:23;;;;;;;4.43;1.60;;;7.30;85.50;;;;;;5045426;28;20393;-65
2023/03/18 05:36:48;;;;;;;4.57;1.80;;;7.00;86.20;;;;;;5048438;28;20025;-65
2023/03/18 05:39:14;;;;;;;4.95;2.67;;;7.00;85.20;;;;;;5045500;28;20037;-65
2023/03/18 05:41:40;;;;;;;4.88;1.60;;;7.20;84.80;;;;;;5055477;28;20394;-66
2023/03/18 05:44:08;;;;;;;3.85;1.40;;;7.10;86.20;;;;;;5047010;28;20034;-66
2023/03/18 05:46:34;;;;;;;4.75;1.73;;;7.10;85.60;;;;;;5044353;28;20413;-65
2023/03/18 05:48:59;;;;;;;6.07;2.53;;;7.10;84.30;;;;;;5043839;28;20075;-65
2023/03/18 05:51:25;;;;;;;4.93;1.95;;;7.10;84.50;;;;;;5047472;28;20037;-66
2023/03/18 05:53:51;;;;;;;4.18;1.50;;;7.10;84.30;;;;;;5047499;28;20044;-65
2023/03/18 05:56:17;;;;;;;4.07;1.70;;;7.10;83.30;;;;;;5038933;28;20103;-65
2023/03/18 05:58:43;;;;;;;3.80;1.42;;;7.40;82.70;;;;;;5055232;28;20431;-65
2023/03/18 06:01:10;;;;;;;5.93;2.00;;;7.50;81.60;;;;;;5038750;28;20068;-66
2023/03/18 06:03:36;;;;;;;7.63;1.90;;;7.60;81.40;;;;;;5050257;28;20110;-65
2023/03/18 06:06:02;;;;;;;4.28;1.60;;;7.40;83.20;;;;;;5069785;28;20416;-67
2023/03/18 06:08:27;;;;;;;5.38;2.13;;;7.30;83.50;;;;;;5039698;28;20095;-66
2023/03/18 06:10:54;;;;;;;4.05;1.75;;;7.20;84.40;;;;;;5058609;28;20333;-66
2023/03/18 06:13:19;;;;;;;6.50;1.60;;;7.10;85.50;;;;;;5043189;28;20418;-65
2023/03/18 06:15:45;;;;;;;7.78;4.15;;;7.00;85.10;;;;;;5040488;28;20116;-65
2023/03/18 06:18:12;;;;;;;4.68;1.33;;;7.10;84.90;;;;;;5045135;28;20108;-65
2023/03/18 06:20:37;;;;;;;5.10;1.83;;;7.20;83.00;;;;;;5045830;28;20041;-66
2023/03/18 06:23:04;;;;;;;5.00;1.63;;;7.20;84.00;;;;;;5056439;28;20180;-65
2023/03/18 06:25:30;;;;;;;4.15;1.63;;;7.30;83.60;;;;;;5058963;28;20437;-64
2023/03/18 06:27:56;;;;;;;4.45;1.58;;;7.30;85.00;;;;;;5062578;28;20087;-65
2023/03/18 06:30:21;;;;;;;7.60;2.47;;;7.20;84.80;;;;;;5039514;28;20037;-64
2023/03/18 06:32:47;;;;;;;5.47;1.80;;;7.30;83.70;;;;;;5043775;28;20082;-63
2023/03/18 06:35:13;;;;;;;4.40;1.48;;;7.30;83.50;;;;;;5042968;28;20052;-66
2023/03/18 06:37:39;;;;;;;5.22;1.50;;;7.40;84.10;;;;;;5041330;28;20481;-65
2023/03/18 06:40:06;;;;;;;5.72;1.60;;;7.50;83.90;;;;;;5071747;28;20120;-65
2023/03/18 06:42:34;;;;;;;3.55;1.67;;;7.60;84.10;;;;;;5043477;28;20433;-65
2023/03/18 06:45:00;;;;;;;6.15;1.92;;;7.70;82.90;;;;;;5069202;28;20024;-65
2023/03/18 06:47:26;;;;;;;4.18;1.85;;;7.80;83.90;;;;;;5062299;28;20100;-65
2023/03/18 06:49:51;;;;;;;7.32;1.80;;;7.90;83.80;;;;;;5050748;28;20033;-65
2023/03/18 06:52:18;;;;;;;3.15;1.45;;;8.10;82.90;;;;;;5042543;28;20089;-64
2023/03/18 06:54:44;;;;;;;5.90;1.40;;;8.20;83.20;;;;;;5063256;28;20033;-65
2023/03/18 06:57:10;;;;;;;4.35;1.48;;;8.40;81.80;;;;;;5050428;28;20025;-65
2023/03/18 06:59:38;;;;;;;4.57;1.60;;;8.40;81.70;;;;;;5050484;28;20083;-65
2023/03/18 07:02:04;;;;;;;4.72;1.52;;;8.50;82.90;;;;;;5060757;28;20041;-65
2023/03/18 07:04:30;;;;;;;5.10;1.83;;;8.70;81.00;;;;;;5065688;28;20026;-64
2023/03/18 07:06:56;;;;;;;5.18;1.50;;;9.00;78.80;;;;;;5076619;28;20033;-65
2023/03/18 07:09:23;;;;;;;5.00;1.60;;;9.10;81.30;;;;;;5044012;28;20056;-65
2023/03/18 07:11:49;;;;;;;3.70;1.50;;;9.40;79.60;;;;;;5052400;28;20040;-65
2023/03/18 07:14:14;;;;;;;5.88;1.95;;;9.50;76.60;;;;;;5034633;28;20029;-65
2023/03/18 07:16:40;;;;;;;5.43;1.75;;;9.70;77.20;;;;;;5067857;28;20494;-65
2023/03/18 07:19:06;;;;;;;4.93;1.55;;;10.10;72.40;;;;;;5059402;28;20073;-65
2023/03/18 07:21:32;;;;;;;3.88;1.40;;;10.40;73.70;;;;;;5054968;28;20071;-64
2023/03/18 07:23:57;;;;;;;4.28;1.52;;;10.60;70.80;;;;;;5047281;28;20044;-65
2023/03/18 07:26:23;;;;;;;6.85;1.40;;;10.80;69.60;;;;;;5046695;28;20025;-65
2023/03/18 07:28:52;;;;;;;6.05;1.42;;;11.10;68.70;;;;;;5061221;28;20025;-65
2023/03/18 07:31:17;;;;;;;3.53;1.35;;;11.40;69.30;;;;;;5054964;28;20033;-65
2023/03/18 07:33:43;;;;;;;5.03;1.67;;;11.40;68.20;;;;;;5042670;28;20418;-65
2023/03/18 07:36:08;;;;;;;5.68;2.00;;;11.50;67.90;;;;;;5049131;28;20025;-65
2023/03/18 07:38:34;;;;;;;4.35;1.80;;;11.60;67.80;;;;;;5044318;28;20028;-65
2023/03/18 07:41:00;;;;;;;3.90;1.30;;;11.70;68.30;;;;;;5048819;28;20414;-66
2023/03/18 07:43:26;;;;;;;3.90;1.45;;;12.00;66.80;;;;;;5051396;28;20021;-65
2023/03/18 07:45:51;;;;;;;6.28;1.42;;;12.00;65.40;;;;;;5074326;28;20460;-65
2023/03/18 07:48:18;;;;;;;5.53;1.65;;;12.10;66.00;;;;;;5062996;28;20329;-65
2023/03/18 07:50:43;;;;;;;7.00;1.95;;;12.20;65.30;;;;;;5047395;28;20025;-66
2023/03/18 07:53:09;;;;;;;4.30;1.27;;;12.30;65.60;;;;;;5053158;28;20040;-66
2023/03/18 07:55:35;;;;;;;3.53;1.20;;;12.30;65.30;;;;;;5049141;28;20017;-65
2023/03/18 07:58:01;;;;;;;3.80;1.33;;;12.50;63.90;;;;;;5054505;28;20020;-65
2023/03/18 08:00:26;;;;;;;3.83;1.40;;;12.60;64.00;;;;;;5045393;28;20037;-66
2023/03/18 08:02:52;;;;;;;3.45;1.20;;;12.80;63.50;;;;;;5050023;28;20028;-66
2023/03/18 08:05:18;;;;;;;3.72;1.45;;;12.80;61.90;;;;;;5035565;28;20034;-65
2023/03/18 08:07:44;;;;;;;3.88;1.23;;;12.90;62.60;;;;;;5036382;28;20319;-65
2023/03/18 08:10:10;;;;;;;4.50;1.40;;;13.00;62.80;;;;;;5038985;28;20025;-66
2023/03/18 08:12:36;;;;;;;4.97;1.70;;;13.10;62.70;;;;;;5035486;28;20031;-66
2023/03/18 08:15:06;;;;;;;5.88;1.50;;;13.20;62.30;;;;;;5035426;28;20037;-67
2023/03/18 08:17:32;;;;;;;5.63;1.85;;;13.40;62.70;;;;;;5036411;28;20116;-66
2023/03/18 08:19:57;;;;;;;4.05;1.33;;;13.40;62.80;;;;;;5051220;28;20385;-64
2023/03/18 08:22:24;;;;;;;5.22;1.27;;;13.60;62.40;;;;;;5049040;28;20445;-65
2023/03/18 08:24:53;;;;;;;6.68;1.48;;;13.70;60.30;;;;;;5064806;28;20021;-65
2023/03/18 08:27:19;;;;;;;4.00;1.35;;;13.90;60.10;;;;;;5050781;28;20013;-64
2023/03/18 08:29:45;;;;;;;5.10;2.22;;;14.80;59.60;;;;;;5055204;28;20037;-65
2023/03/18 08:32:11;;;;;;;5.93;1.30;;;16.10;58.40;;;;;;5054923;28;20131;-64
2023/03/18 08:34:37;;;;;;;4.32;1.42;;;17.00;55.10;;;;;;5045265;28;20492;-64
2023/03/18 08:37:03;;;;;;;3.67;1.10;;;17.50;53.80;;;;;;5050690;28;20094;-66
2023/03/18 08:39:29;;;;;;;3.65;1.80;;;18.00;51.90;;;;;;5047307;28;20127;-64
2023/03/18 08:41:55;;;;;;;4.53;1.30;;;18.30;52.60;;;;;;5043345;28;20115;-64
2023/03/18 08:44:20;;;;;;;4.35;1.17;;;18.50;51.60;;;;;;5025366;28;20070;-65
2023/03/18 08:46:49;;;;;;;3.55;1.20;;;18.30;50.70;;;;;;5053585;28;20067;-66
2023/03/18 08:49:14;;;;;;;6.32;1.60;;;18.60;51.80;;;;;;5045799;28;20033;-66
2023/03/18 08:51:40;;;;;;;5.28;1.40;;;18.60;51.70;;;;;;5047849;28;20029;-66
2023/03/18 08:54:07;;;;;;;4.82;1.27;;;18.60;50.50;;;;;;5045577;28;20032;-65
2023/03/18 08:56:33;;;;;;;4.28;1.15;;;18.50;50.60;;;;;;5045402;28;20060;-65
2023/03/18 08:58:58;;;;;;;4.82;1.10;;;18.20;50.30;;;;;;5053304;28;20028;-65
2023/03/18 09:01:25;;;;;;;3.78;1.33;;;17.90;50.80;;;;;;5035409;28;20080;-65
2023/03/18 09:03:50;;;;;;;6.25;1.42;;;17.70;50.50;;;;;;5042613;28;20025;-65
2023/03/18 09:06:19;;;;;;;4.18;1.45;;;17.80;51.90;;;;;;5051030;28;20290;-65
2023/03/18 09:08:45;;;;;;;4.10;1.48;;;18.00;52.00;;;;;;5051047;28;20036;-66
2023/03/18 09:11:12;;;;;;;5.35;1.40;;;18.30;51.50;;;;;;5036189;28;20442;-66
2023/03/18 09:13:38;;;;;;;5.22;1.40;;;18.00;51.80;;;;;;5046533;28;20421;-65
2023/03/18 09:16:07;;;;;;;6.13;1.98;;;18.10;52.00;;;;;;5054955;28;20043;-66
2023/03/18 09:18:34;;;;;;;4.65;1.48;;;18.20;51.80;;;;;;5042818;28;20050;-64
2023/03/18 09:20:59;;;;;;;4.82;1.30;;;18.50;52.70;;;;;;5047476;28;20033;-64
2023/03/18 09:23:26;;;;;;;4.65;1.20;;;18.50;51.50;;;;;;5058392;28;20147;-64
2023/03/18 09:25:53;;;;;;;4.30;1.50;;;18.50;51.40;;;;;;5052339;28;20060;-64
2023/03/18 09:28:19;;;;;;;3.78;1.33;;;18.30;52.00;;;;;;5057949;28;20425;-64
2023/03/18 09:30:45;;;;;;;4.13;1.50;;;18.40;51.80;;;;;;5055550;28;20021;-66
2023/03/18 09:33:12;;;;;;;4.75;1.60;;;18.60;52.20;;;;;;5049060;28;20109;-66
2023/03/18 09:35:41;;;;;;;3.92;1.13;;;19.10;52.00;;;;;;5047419;28;20034;-66
2023/03/18 09:38:07;;;;;;;5.90;1.80;;;19.10;52.40;;;;;;5045271;28;20098;-65
2023/03/18 09:40:36;;;;;;;4.80;1.60;;;19.10;51.90;;;;;;5056501;28;20061;-66
2023/03/18 09:43:25;;;;;;;4.80;1.30;;;19.10;51.90;;;;;;5049464;28;20028;-66
2023/03/18 09:46:16;;;;;;;5.40;1.70;;;19.00;52.10;;;;;;5062006;28;20028;-65
2023/03/18 09:49:10;;;;;;;5.60;1.30;;;19.70;52.20;;;;;;5068233;28;20107;-65
2023/03/18 09:51:36;;;;;;;3.80;1.30;;;20.10;50.40;;;;;;5047590;28;20112;-64
2023/03/18 09:54:07;;;;;;;5.53;1.67;;;20.10;51.00;;;;;;5057480;28;20025;-64
2023/03/18 09:56:36;;;;;;;6.35;1.83;;;19.90;50.60;;;;;;5060968;28;20031;-65
2023/03/18 09:59:27;;;;;;;5.57;1.50;;;19.30;51.40;;;;;;5062816;28;20040;-66
2023/03/18 10:01:56;;;;;;;5.07;1.40;;;19.20;49.70;;;;;;5061361;28;20041;-64
2023/03/18 10:04:26;;;;;;;3.50;1.30;;;19.30;49.80;;;;;;5062846;28;20021;-65
2023/03/18 10:07:11;;;;;;;5.45;1.58;;;19.60;49.10;;;;;;5043048;28;20025;-65
2023/03/18 10:09:43;;;;;;;4.22;1.33;;;19.90;50.00;;;;;;5057861;28;20021;-65
2023/03/18 10:12:35;;;;;;;4.53;1.27;;;20.10;48.70;;;;;;5066890;28;20056;-66
2023/03/18 10:15:18;;;;;;;4.25;1.13;;;19.70;48.90;;;;;;5062042;28;20329;-65
2023/03/18 10:17:48;;;;;;;3.15;1.20;;;19.20;48.30;;;;;;5055896;28;20029;-64
2023/03/18 10:20:34;;;;;;;9.20;1.40;;;19.20;49.60;;;;;;5058509;28;20374;-64
2023/03/18 10:23:21;;;;;;;3.15;1.20;;;19.30;49.20;;;;;;5049465;28;20059;-65
2023/03/18 10:25:55;;;;;;;5.85;1.30;;;19.70;48.80;;;;;;5040318;28;20028;-64
2023/03/18 10:28:40;;;;;;;3.42;1.30;;;19.90;48.70;;;;;;5056154;28;20021;-64
2023/03/18 10:31:24;;;;;;;4.10;1.45;;;19.90;47.90;;;;;;5055984;28;20017;-65
2023/03/18 10:33:56;;;;;;;2.88;1.10;;;20.00;47.70;;;;;;5054590;28;20025;-65
2023/03/18 10:36:42;;;;;;;4.75;1.50;;;20.00;48.90;;;;;;5055246;28;20040;-65
2023/03/18 10:39:15;;;;;;;5.28;1.27;;;19.70;48.60;;;;;;5002600;28;20132;-64
2023/03/18 10:41:42;;;;;;;4.93;1.20;;;19.70;49.80;;;;;;5050280;28;20033;-63
2023/03/18 10:44:17;;;;;;;4.78;1.30;;;19.90;48.90;;;;;;5053558;28;20036;-64
2023/03/18 10:46:46;;;;;;;5.15;1.30;;;19.20;49.10;;;;;;5034903;28;20025;-63
2023/03/18 10:49:24;;;;;;;6.63;1.45;;;18.60;50.40;;;;;;5054589;28;20078;-63
2023/03/18 10:52:05;;;;;;;4.32;1.30;;;18.50;51.50;;;;;;5051632;28;20045;-63
2023/03/18 10:54:41;;;;;;;4.70;1.30;;;18.60;51.20;;;;;;5053858;28;20021;-63
2023/03/18 10:57:15;;;;;;;6.13;1.30;;;18.50;50.70;;;;;;5058155;28;20107;-64
2023/03/18 10:59:44;;;;;;;3.38;1.27;;;18.50;51.50;;;;;;5053218;28;20024;-64
2023/03/18 11:02:29;;;;;;;6.45;1.38;;;19.30;51.50;;;;;;5054067;28;20073;-64
2023/03/18 11:05:05;;;;;;;4.38;1.20;;;19.60;50.30;;;;;;5054779;28;20041;-64
2023/03/18 11:07:55;;;;;;;3.08;1.20;;;19.80;50.50;;;;;;5051279;28;20350;-64
2023/03/18 11:10:27;;;;;;;8.10;1.50;;;20.10;51.30;;;;;;5042463;28;20095;-63
2023/03/18 11:13:03;;;;;;;3.67;1.00;;;20.40;49.90;;;;;;5050573;28;20056;-64
2023/03/18 11:15:36;;;;;;;6.40;1.48;;;20.50;48.80;;;;;;5067339;28;20115;-65
2023/03/18 11:18:02;;;;;;;4.28;1.17;;;19.90;49.10;;;;;;5058111;28;20040;-65
2023/03/18 11:20:41;;;;;;;3.92;1.20;;;19.60;50.00;;;;;;5057268;28;20071;-64
2023/03/18 11:23:47;;;;;;;6.35;1.60;;;20.40;50.50;;;;;;5057842;28;20021;-62
2023/03/18 11:26:29;;;;;;;3.70;1.27;;;20.40;48.30;;;;;;5046835;28;20358;-64
2023/03/18 11:29:03;;;;;;;3.00;1.15;;;20.50;49.80;;;;;;5046770;28;20104;-65
2023/03/18 11:31:29;;;;;;;5.65;1.20;;;20.50;49.80;;;;;;5051047;28;20024;-64
2023/03/18 11:34:06;;;;;;;4.85;1.33;;;20.40;48.90;;;;;;5051032;28;20036;-64
2023/03/18 11:36:32;;;;;;;5.95;1.60;;;20.60;49.20;;;;;;5063546;28;20040;-64
2023/03/18 11:39:05;;;;;;;3.45;1.20;;;21.00;48.90;;;;;;5054294;28;20314;-64
2023/03/18 11:41:30;;;;;;;2.72;1.20;;;20.80;48.90;;;;;;5057329;28;20344;-62
2023/03/18 11:44:17;;;;;;;4.32;1.40;;;20.60;49.20;;;;;;5056346;28;20039;-64
2023/03/18 11:46:49;;;;;;;4.70;1.30;;;21.00;48.50;;;;;;5057840;28;20028;-64
2023/03/18 11:49:20;;;;;;;7.63;1.40;;;21.20;50.00;;;;;;5055799;28;20028;-64
2023/03/18 11:52:08;;;;;;;6.75;1.92;;;21.50;49.10;;;;;;5049906;28;20064;-63
2023/03/18 11:55:00;;;;;;;3.28;1.10;;;21.40;48.30;;;;;;5057539;28;20059;-63
2023/03/18 11:57:41;;;;;;;4.55;1.10;;;21.20;50.20;;;;;;5035575;28;20422;-64
2023/03/18 12:00:32;;;;;;;4.97;1.48;;;21.40;48.30;;;;;;5036267;28;20038;-64
2023/03/18 12:03:16;;;;;;;5.38;1.27;;;21.50;48.40;;;;;;5053847;28;20045;-64
2023/03/18 12:06:22;;;;;;;5.40;1.40;;;21.40;48.70;;;;;;5056484;28;20024;-63
2023/03/18 12:09:09;;;;;;;4.47;1.52;;;21.00;49.00;;;;;;4975696;28;20031;-63
2023/03/18 12:11:54;;;;;;;5.80;1.30;;;21.00;50.00;;;;;;5050592;28;20334;-63
2023/03/18 12:14:39;;;;;;;5.28;1.33;;;20.80;49.80;;;;;;5055902;28;20448;-62
2023/03/18 12:17:27;;;;;;;5.63;1.67;;;20.80;50.60;;;;;;5020076;28;20039;-63
2023/03/18 12:20:26;;;;;;;3.42;1.38;;;21.00;50.40;;;;;;5055271;28;20028;-62
2023/03/18 12:22:58;;;;;;;3.55;1.23;;;21.10;48.60;;;;;;5055967;28;20025;-63
2023/03/18 12:25:53;;;;;;;5.35;1.27;;;21.20;49.80;;;;;;5056377;28;20080;-64
2023/03/18 12:28:31;;;;;;;5.20;1.27;;;21.00;49.10;;;;;;5033779;28;20033;-63
2023/03/18 12:31:03;;;;;;;5.07;1.40;;;21.10;51.00;;;;;;5032230;28;20323;-63
2023/03/18 12:33:54;;;;;;;5.55;1.45;;;20.90;49.90;;;;;;5036436;28;20155;-64
2023/03/18 12:36:38;;;;;;;4.22;1.35;;;20.60;50.40;;;;;;5036315;28;20037;-65
2023/03/18 12:39:14;;;;;;;4.25;1.60;;;20.80;51.40;;;;;;5055352;28;20037;-64
2023/03/18 12:42:05;;;;;;;5.43;1.48;;;21.00;50.40;;;;;;5055141;28;20460;-64
2023/03/18 12:44:40;;;;;;;4.80;1.20;;;21.00;50.10;;;;;;5056018;28;20027;-64
2023/03/18 12:47:18;;;;;;;3.72;1.30;;;21.20;50.50;;;;;;5044771;28;20033;-64
2023/03/18 12:49:50;;;;;;;3.83;1.20;;;21.50;49.30;;;;;;5035121;28;20056;-63
2023/03/18 12:52:43;;;;;;;6.63;1.77;;;21.30;49.60;;;;;;5035944;28;20109;-62
2023/03/18 12:55:29;;;;;;;3.65;1.17;;;21.10;50.50;;;;;;5036063;28;20427;-63
2023/03/18 12:58:17;;;;;;;5.18;1.55;;;21.00;50.40;;;;;;5045805;28;20086;-63
2023/03/18 13:00:51;;;;;;;3.38;1.40;;;20.90;50.60;;;;;;5050892;28;20341;-64
2023/03/18 13:03:34;;;;;;;4.30;1.30;;;20.80;51.10;;;;;;5036588;28;20029;-63
2023/03/18 13:06:12;;;;;;;4.70;1.50;;;21.10;50.40;;;;;;5035897;28;20026;-64